createdAt,value
2022-12-17T00:02:37.548Z,-2.25088
2022-12-17T00:07:38.634Z,-2.21826
2022-12-17T00:12:39.570Z,-2.14397
2022-12-17T00:17:40.515Z,-2.143
2022-12-17T00:22:41.431Z,-2.08551
2022-12-17T00:27:42.348Z,-2.01315
2022-12-17T00:32:43.281Z,-2.03706
2022-12-17T00:37:44.208Z,-1.98764
2022-12-17T00:42:45.098Z,-2.04222
2022-12-17T00:47:46.163Z,-2.16722
2022-12-17T00:52:47.094Z,-2.13686
2022-12-17T00:57:48.085Z,-2.01186
2022-12-17T01:02:49.123Z,-1.99571
2022-12-17T01:07:50.141Z,-1.97278
2022-12-17T01:12:51.090Z,-1.95857
2022-12-17T01:17:52.889Z,-1.92272
2022-12-17T01:22:57.203Z,-1.88331
2022-12-17T01:27:58.265Z,-1.92304
2022-12-17T01:32:59.193Z,-1.95211
2022-12-17T01:38:00.111Z,-1.88783
2022-12-17T01:43:00.994Z,-1.92272
2022-12-17T01:48:01.938Z,-1.9085
2022-12-17T01:53:02.861Z,-1.90107
2022-12-17T01:58:03.940Z,-1.86942
2022-12-17T02:03:04.977Z,-1.86425
2022-12-17T02:08:05.929Z,-1.83712
2022-12-17T02:13:06.810Z,-1.83809
2022-12-17T02:18:07.716Z,-1.76994
2022-12-17T02:23:08.632Z,-1.74571
2022-12-17T02:28:09.546Z,-1.67821
2022-12-17T02:33:10.440Z,-1.62459
2022-12-17T02:38:11.356Z,-1.63299
2022-12-17T02:43:12.294Z,-1.68628
2022-12-17T02:48:13.213Z,-1.70211
2022-12-17T02:53:14.138Z,-1.70728
2022-12-17T02:58:15.058Z,-1.70695
2022-12-17T03:03:16.097Z,-1.79836
2022-12-17T03:08:17.116Z,-1.83777
2022-12-17T03:13:18.004Z,-1.84261
2022-12-17T03:18:18.986Z,-1.8565
2022-12-17T03:23:19.979Z,-1.84649
2022-12-17T03:28:20.908Z,-1.79836
2022-12-17T03:33:21.852Z,-1.81096
2022-12-17T03:38:22.759Z,-1.7722
2022-12-17T03:43:23.660Z,-1.85553
2022-12-17T03:48:24.595Z,-1.9421
2022-12-17T03:53:25.545Z,-1.99151
2022-12-17T03:58:26.473Z,-1.98021
2022-12-17T04:03:27.512Z,-2.01477
2022-12-17T04:08:28.536Z,-2.08841
2022-12-17T04:13:29.461Z,-2.10069
2022-12-17T04:18:30.347Z,-2.1514
2022-12-17T04:23:31.688Z,-2.14688
2022-12-17T04:28:32.759Z,-2.1879
2022-12-17T04:33:34.164Z,-2.22343
2022-12-17T04:38:35.320Z,-2.28189
2022-12-17T04:43:36.439Z,-2.16755
2022-12-17T04:48:37.650Z,-2.11974
2022-12-17T04:53:38.770Z,-2.08874
2022-12-17T04:58:40.229Z,-2.11619
2022-12-17T05:03:41.475Z,-2.0868
2022-12-17T05:08:42.688Z,-2.20501
2022-12-17T05:13:43.585Z,-2.31193
2022-12-17T05:18:44.617Z,-2.32355
2022-12-17T05:23:45.578Z,-2.34487
2022-12-17T05:28:46.516Z,-2.28512
2022-12-17T05:33:47.486Z,-2.29384
2022-12-17T05:38:48.404Z,-2.28576
2022-12-17T05:43:49.268Z,-2.29287
2022-12-17T05:48:50.206Z,-2.23505
2022-12-17T05:53:51.095Z,-2.37911
2022-12-17T05:58:52.099Z,-2.29707
2022-12-17T06:03:53.267Z,-2.20082
2022-12-17T06:08:54.788Z,-2.28027
2022-12-17T06:13:55.731Z,-2.27833
2022-12-17T06:18:56.945Z,-2.25928
2022-12-17T06:23:57.862Z,-2.15075
2022-12-17T06:28:58.843Z,-2.13751
2022-12-17T06:33:59.735Z,-2.17078
2022-12-17T06:39:00.693Z,-2.32678
2022-12-17T06:44:01.923Z,-2.35295
2022-12-17T06:49:02.847Z,-2.37233
2022-12-17T06:54:04.068Z,-2.36264
2022-12-17T06:59:05.252Z,-2.29675
2022-12-17T07:04:06.209Z,-2.17594
2022-12-17T07:09:07.129Z,-2.16852
2022-12-17T07:14:08.083Z,-2.0952
2022-12-17T07:19:08.990Z,-2.13492
2022-12-17T07:24:09.899Z,-2.26122
2022-12-17T07:29:10.804Z,-2.42788
2022-12-17T07:34:11.663Z,-2.42336
2022-12-17T07:39:12.619Z,-2.38202
2022-12-17T07:44:13.529Z,-2.32452
2022-12-17T07:49:14.547Z,-2.29998
2022-12-17T07:54:15.424Z,-2.20437
2022-12-17T07:59:16.382Z,-2.16948
2022-12-17T08:04:17.361Z,-2.11748
2022-12-17T08:09:18.287Z,-2.12427
2022-12-17T08:14:19.140Z,-2.08454
2022-12-17T08:19:20.148Z,-2.07485
2022-12-17T08:24:21.154Z,-2.04352
2022-12-17T08:29:22.028Z,-2.10036
2022-12-17T08:34:23.020Z,-2.2273
2022-12-17T08:39:23.947Z,-2.17788
2022-12-17T08:44:24.834Z,-2.25314
2022-12-17T08:49:25.773Z,-2.15624
2022-12-17T08:54:26.718Z,-2.122
2022-12-17T08:59:27.984Z,-1.98538
2022-12-17T09:04:28.970Z,-2.04707
2022-12-17T09:09:29.889Z,-1.96761
2022-12-17T09:14:30.836Z,-1.98538
2022-12-17T09:19:31.731Z,-2.15107
2022-12-17T09:24:32.660Z,-1.91949
2022-12-17T09:29:33.584Z,-1.89138
2022-12-17T09:34:34.539Z,-1.8087
2022-12-17T09:39:35.440Z,-1.77188
2022-12-17T09:44:36.394Z,-1.96632
2022-12-17T09:49:37.457Z,-1.91529
2022-12-17T09:54:38.391Z,-1.9337
2022-12-17T09:59:39.340Z,-1.96955
2022-12-17T10:04:40.284Z,-1.94726
2022-12-17T10:09:41.274Z,-1.95986
2022-12-17T10:14:42.208Z,-1.79449
2022-12-17T10:19:43.187Z,-1.74991
2022-12-17T10:24:44.261Z,-1.81936
2022-12-17T10:29:48.104Z,-1.86005
2022-12-17T10:34:49.563Z,-1.90075
2022-12-17T10:39:50.541Z,-1.88686
2022-12-17T10:44:51.464Z,-1.63783
2022-12-17T10:49:52.376Z,-1.59552
2022-12-17T10:54:53.332Z,-1.5306
2022-12-17T10:59:54.354Z,-1.58421
2022-12-17T11:04:55.308Z,-1.72827
2022-12-17T11:09:56.229Z,-1.81031
2022-12-17T11:14:58.127Z,-1.79158
2022-12-17T11:19:59.186Z,-1.84261
2022-12-17T11:25:00.084Z,-1.78673
2022-12-17T11:30:01.017Z,-1.86974
2022-12-17T11:35:01.966Z,-2.06548
2022-12-17T11:40:02.932Z,-1.90947
2022-12-17T11:45:04.097Z,-2.02446
2022-12-17T11:50:05.331Z,-1.85036
2022-12-17T11:55:06.268Z,-1.77317
2022-12-17T12:00:07.188Z,-1.59132
2022-12-17T12:05:08.117Z,-1.55837
2022-12-17T12:10:09.108Z,-1.53447
2022-12-17T12:15:10.004Z,-1.55127
2022-12-17T12:20:11.031Z,-1.70566
2022-12-17T12:25:11.993Z,-1.68531
2022-12-17T12:30:12.911Z,-1.76574
2022-12-17T12:35:13.805Z,-1.85715
2022-12-17T12:40:14.760Z,-1.83583
2022-12-17T12:45:15.684Z,-1.76122
2022-12-17T12:50:16.625Z,-1.77349
2022-12-17T12:55:17.548Z,-1.71858
2022-12-17T13:00:18.455Z,-1.73441
2022-12-17T13:05:19.366Z,-1.83098
2022-12-17T13:10:20.258Z,-1.95275
2022-12-17T13:15:21.170Z,-1.94016
2022-12-17T13:20:22.070Z,-1.89849
2022-12-17T13:25:22.942Z,-2.07743
2022-12-17T13:30:23.858Z,-2.1753
2022-12-17T13:35:24.752Z,-2.07032
2022-12-17T13:40:25.775Z,-2.00734
2022-12-17T13:45:26.679Z,-2.09616
2022-12-17T13:50:36.192Z,-2.01219
2022-12-17T13:55:41.879Z,-1.97246
2022-12-17T14:00:43.149Z,-1.65721
2022-12-17T14:05:44.144Z,-1.46567
2022-12-17T14:10:45.090Z,-1.73182
2022-12-17T14:15:45.976Z,-2.01251
2022-12-17T14:20:46.972Z,-2.247
2022-12-17T14:25:47.951Z,-2.30482
2022-12-17T14:31:24.505Z,-2.39946
2022-12-17T14:36:27.204Z,-2.52317
2022-12-17T14:41:28.133Z,-2.60165
2022-12-17T14:46:29.198Z,-2.4731
2022-12-17T14:51:30.135Z,-2.39881
2022-12-17T14:56:31.027Z,-2.57161
2022-12-17T15:01:32.105Z,-2.4815
2022-12-17T15:06:33.109Z,-2.56612
2022-12-17T15:11:34.030Z,-2.6178
2022-12-17T15:16:34.974Z,-2.72827
2022-12-17T15:21:35.964Z,-2.80546
2022-12-17T15:26:36.882Z,-2.76218
2022-12-17T15:31:37.868Z,-2.88653
2022-12-17T15:36:38.818Z,-3.08195
2022-12-17T15:41:39.746Z,-3.12781
2022-12-17T15:46:40.687Z,-3.27477
2022-12-17T15:51:41.885Z,-3.16754
2022-12-17T15:56:42.933Z,-3.10488
2022-12-17T16:01:43.940Z,-3.02058
2022-12-17T16:06:45.171Z,-3.15397
2022-12-17T16:11:46.169Z,-3.16722
2022-12-17T16:16:47.098Z,-3.21663
2022-12-17T16:21:48.071Z,-3.26605
2022-12-17T16:26:48.988Z,-3.22471
2022-12-17T16:31:49.901Z,-3.38847
2022-12-17T16:36:50.806Z,-3.40784
2022-12-17T16:41:51.719Z,-3.3103
2022-12-17T16:46:52.692Z,-3.28511
2022-12-17T16:51:53.642Z,-3.34389
2022-12-17T16:56:55.685Z,-3.42884
2022-12-17T17:01:57.011Z,-3.57871
2022-12-17T17:06:58.131Z,-3.67496
2022-12-17T17:11:59.040Z,-3.64783
2022-12-17T17:16:59.967Z,-3.59776
2022-12-17T17:22:00.892Z,-3.51023
2022-12-17T17:27:01.905Z,-3.57871
2022-12-17T17:32:11.715Z,-3.63071
2022-12-17T17:37:14.344Z,-3.82806
2022-12-17T17:42:15.291Z,-3.81546
2022-12-17T17:47:16.218Z,-3.90138
2022-12-17T17:52:17.121Z,-3.88942
2022-12-17T17:57:18.045Z,-3.8371
2022-12-17T18:02:18.994Z,-3.89233
2022-12-17T18:07:28.135Z,-3.93852
2022-12-17T18:12:29.461Z,-4.00602
2022-12-17T18:17:30.388Z,-4.03154
2022-12-17T18:22:31.288Z,-3.96985
2022-12-17T18:27:32.246Z,-4.09097
2022-12-17T18:32:33.206Z,-4.00699
2022-12-17T18:37:34.129Z,-3.95305
2022-12-17T18:42:35.048Z,-4.09743
2022-12-17T18:47:35.977Z,-4.08968
2022-12-17T18:52:36.948Z,-4.10131
2022-12-17T18:57:37.920Z,-4.17753
2022-12-17T19:02:39.073Z,-4.41105
2022-12-17T19:07:40.135Z,-4.36648
2022-12-17T19:12:41.069Z,-4.18205
2022-12-17T19:17:41.972Z,-4.22792
2022-12-17T19:22:42.867Z,-4.36939
2022-12-17T19:27:43.777Z,-4.36099
2022-12-17T19:32:44.996Z,-4.45562
2022-12-17T19:37:45.915Z,-4.46919
2022-12-17T19:42:46.890Z,-4.48599
2022-12-17T19:47:47.824Z,-4.5677
2022-12-17T19:52:48.729Z,-4.57352
2022-12-17T19:57:49.638Z,-4.45692
2022-12-17T20:02:50.637Z,-4.54089
2022-12-17T20:07:51.618Z,-4.68785
2022-12-17T20:12:52.602Z,-4.65426
2022-12-17T20:17:53.561Z,-4.72726
2022-12-17T20:22:54.531Z,-4.79864
2022-12-17T20:27:55.495Z,-4.777
2022-12-17T20:32:56.439Z,-4.71434
2022-12-17T20:37:57.336Z,-4.48211
2022-12-17T20:42:58.348Z,-4.50407
2022-12-17T20:47:59.743Z,-4.63101
2022-12-17T20:53:00.643Z,-4.77764
2022-12-17T20:58:01.534Z,-4.72564
2022-12-17T21:03:02.626Z,-4.66169
2022-12-17T21:08:03.627Z,-4.69399
2022-12-17T21:13:04.858Z,-4.58579
2022-12-17T21:18:05.805Z,-4.58902
2022-12-17T21:23:06.716Z,-4.67203
2022-12-17T21:28:07.733Z,-4.80607
2022-12-17T21:33:08.663Z,-4.86679
2022-12-17T21:38:10.924Z,-4.83029
2022-12-17T21:43:12.265Z,-5.0047
2022-12-17T21:48:15.070Z,-5.10935
2022-12-17T21:53:16.419Z,-5.20592
2022-12-17T21:58:17.963Z,-5.34933
2022-12-17T22:03:18.892Z,-5.37388
2022-12-17T22:08:19.839Z,-5.40779
2022-12-17T22:13:21.299Z,-5.35805
2022-12-17T22:18:22.230Z,-5.2534
2022-12-17T22:23:23.194Z,-5.18913
2022-12-17T22:28:25.717Z,-5.19946
2022-12-17T22:34:05.674Z,-5.13551
2022-12-17T22:41:59.901Z,-5.08771
2022-12-17T22:49:41.140Z,-5.28279
2022-12-17T22:54:45.013Z,-5.39519
2022-12-17T22:59:46.411Z,-5.58963
2022-12-17T23:04:47.395Z,-5.63259
2022-12-17T23:09:48.476Z,-5.51922
2022-12-17T23:14:49.389Z,-5.52342
2022-12-17T23:19:50.358Z,-5.48014
2022-12-17T23:24:51.251Z,-5.53052
2022-12-17T23:29:52.355Z,-5.63388
2022-12-17T23:34:53.330Z,-5.7143
2022-12-17T23:39:54.297Z,-5.70235
2022-12-17T23:44:55.267Z,-5.71204
2022-12-17T23:49:56.268Z,-5.56993
2022-12-17T23:54:57.195Z,-5.5906
2022-12-17T23:59:58.163Z,-5.61547
